Time;durP1;ratioP1;P1;durP2;ratioP2;P2;SDS_P1;SDS_P2;PMS_P1;PMS_P2;Temp;Humidity;BMP_temperature;BMP_pressure;BME280_temperature;BME280_humidity;BME280_pressure;Samples;Min_cycle;Max_cycle;Signal;HPM_P1;HPM_P2
2023/02/07 00:00:36;;;;;;;9.48;2.45;;;;;;;7.41;100.00;101541.84;2085955;28;20045;-83
2023/02/07 00:01:58;;;;;;;8.85;2.53;;;;;;;7.40;100.00;101540.03;2091421;28;20564;-84
2023/02/07 00:03:19;;;;;;;11.25;2.70;;;;;;;7.43;100.00;101566.41;2093924;28;20056;-84
2023/02/07 00:04:42;;;;;;;8.88;3.03;;;;;;;7.45;100.00;101555.97;2094257;28;20057;-84
2023/02/07 00:06:07;;;;;;;9.85;2.45;;;;;;;7.47;100.00;101560.47;2094130;28;20067;-84
2023/02/07 00:07:29;;;;;;;10.48;2.70;;;;;;;7.45;100.00;101561.22;2093752;28;20381;-83
2023/02/07 00:08:52;;;;;;;7.78;2.47;;;;;;;7.44;100.00;101567.31;2094124;28;20044;-84
2023/02/07 00:10:16;;;;;;;13.75;3.20;;;;;;;7.44;100.00;101562.06;2094231;28;20032;-83
2023/02/07 00:11:40;;;;;;;13.02;2.55;;;;;;;7.46;100.00;101556.03;2088840;28;20103;-83
2023/02/07 00:13:04;;;;;;;10.63;2.80;;;;;;;7.48;100.00;101564.00;2094609;28;20393;-83
2023/02/07 00:14:27;;;;;;;10.52;2.70;;;;;;;7.49;100.00;101566.66;2087833;28;20049;-84
2023/02/07 00:15:50;;;;;;;10.90;3.67;;;;;;;7.52;100.00;101566.78;2094359;28;20140;-83
2023/02/07 00:17:12;;;;;;;9.48;2.72;;;;;;;7.52;100.00;101566.78;2089082;28;20064;-84
2023/02/07 00:18:35;;;;;;;8.82;2.88;;;;;;;7.56;100.00;101567.81;2086218;28;20132;-83
2023/02/07 00:19:58;;;;;;;8.57;2.72;;;;;;;7.55;100.00;101572.16;2101246;28;20059;-85
2023/02/07 00:21:22;;;;;;;11.18;2.40;;;;;;;7.56;100.00;101583.56;2096633;28;20102;-86
2023/02/07 00:22:47;;;;;;;10.88;2.47;;;;;;;7.55;100.00;101594.91;2094793;28;20061;-84
2023/02/07 00:24:09;;;;;;;7.93;2.40;;;;;;;7.54;100.00;101590.50;2102730;28;20078;-85
2023/02/07 00:25:31;;;;;;;8.98;2.45;;;;;;;7.52;100.00;101589.53;2096747;28;20094;-84
2023/02/07 00:26:55;;;;;;;12.43;2.40;;;;;;;7.51;100.00;101587.75;2102516;28;20044;-85
2023/02/07 00:28:17;;;;;;;5.57;2.28;;;;;;;7.46;100.00;101595.44;2096737;28;20072;-84
2023/02/07 00:29:39;;;;;;;7.28;2.47;;;;;;;7.42;100.00;101559.34;2080246;28;20072;-83
2023/02/07 00:31:06;;;;;;;5.95;2.00;;;;;;;7.41;100.00;101580.34;2091811;28;20048;-83
2023/02/07 00:32:31;;;;;;;9.27;2.35;;;;;;;7.37;100.00;101575.75;2080606;28;20394;-83
2023/02/07 00:33:56;;;;;;;7.55;2.55;;;;;;;7.35;100.00;101587.97;2093968;28;20048;-84
2023/02/07 00:35:18;;;;;;;10.60;2.55;;;;;;;7.33;100.00;101585.25;2095323;28;20056;-83
2023/02/07 00:36:40;;;;;;;11.52;2.80;;;;;;;7.33;100.00;101597.50;2095198;28;20044;-84
2023/02/07 00:38:03;;;;;;;7.78;2.90;;;;;;;7.32;100.00;101591.34;2094152;28;20068;-84
2023/02/07 00:39:25;;;;;;;9.27;3.35;;;;;;;7.31;100.00;101586.00;2095616;28;20425;-84
2023/02/07 00:40:46;;;;;;;10.70;2.55;;;;;;;7.33;100.00;101600.13;2091610;28;20037;-83
2023/02/07 00:42:10;;;;;;;9.48;3.25;;;;;;;7.33;100.00;101600.13;2094593;28;20068;-84
2023/02/07 00:43:33;;;;;;;11.80;2.83;;;;;;;7.37;100.00;101599.41;2087615;28;20056;-85
2023/02/07 00:44:55;;;;;;;9.27;2.40;;;;;;;7.39;100.00;101590.75;2092644;28;20607;-84
2023/02/07 00:46:18;;;;;;;6.68;2.50;;;;;;;7.40;100.00;101592.56;2095811;28;20064;-84
2023/02/07 00:47:41;;;;;;;9.13;3.05;;;;;;;7.43;100.00;101587.41;2095531;28;20440;-83
2023/02/07 00:49:03;;;;;;;10.27;2.20;;;;;;;7.49;100.00;101597.28;2095031;28;21661;-85
2023/02/07 00:50:25;;;;;;;8.55;2.70;;;;;;;7.52;100.00;101592.16;2095527;28;20076;-85
2023/02/07 00:51:47;;;;;;;11.50;2.95;;;;;;;7.54;100.00;101593.13;2107945;28;20051;-86
2023/02/07 00:53:09;;;;;;;9.63;2.60;;;;;;;7.57;100.00;101601.13;2101084;28;20037;-84
2023/02/07 00:54:31;;;;;;;8.48;3.15;;;;;;;7.57;100.00;101580.09;2103752;28;20104;-85
2023/02/07 00:55:52;;;;;;;7.28;2.85;;;;;;;7.58;100.00;101589.78;2098299;28;20048;-83
2023/02/07 00:57:16;;;;;;;12.45;3.63;;;;;;;7.59;100.00;101596.84;2100925;28;20064;-85
2023/02/07 00:58:37;;;;;;;8.90;2.38;;;;;;;7.60;100.00;101589.03;2095013;28;20048;-84
2023/02/07 01:00:00;;;;;;;8.70;2.97;;;;;;;7.60;100.00;101588.13;2103745;28;20506;-84
2023/02/07 01:01:21;;;;;;;10.45;2.72;;;;;;;7.61;100.00;101592.56;2094624;28;20041;-85
2023/02/07 01:02:44;;;;;;;7.03;2.95;;;;;;;7.62;100.00;101589.06;2103151;28;20105;-85
2023/02/07 01:04:05;;;;;;;7.30;2.65;;;;;;;7.64;100.00;101595.28;2098106;28;20044;-84
2023/02/07 01:05:28;;;;;;;8.93;2.88;;;;;;;7.64;100.00;101587.41;2086917;28;20041;-84
2023/02/07 01:06:49;;;;;;;12.93;2.72;;;;;;;7.68;100.00;101589.31;2092871;28;20139;-86
2023/02/07 01:08:13;;;;;;;13.13;3.40;;;;;;;7.69;100.00;101591.09;2089891;28;20131;-84
2023/02/07 01:09:35;;;;;;;9.77;3.53;;;;;;;7.71;100.00;101588.56;2092658;28;20392;-84
2023/02/07 01:11:00;;;;;;;8.18;2.80;;;;;;;7.70;100.00;101571.00;2086514;28;20037;-84
2023/02/07 01:12:24;;;;;;;7.20;2.83;;;;;;;7.72;100.00;101571.94;2101194;28;20616;-86
2023/02/07 01:13:47;;;;;;;9.82;2.90;;;;;;;7.71;100.00;101573.69;2089704;28;20045;-85
2023/02/07 01:15:09;;;;;;;12.00;2.25;;;;;;;7.70;100.00;101571.88;2091941;28;20101;-85
2023/02/07 01:16:35;;;;;;;6.75;1.90;;;;;;;7.70;100.00;101561.38;2095544;28;20147;-85
2023/02/07 01:17:57;;;;;;;8.15;2.67;;;;;;;7.69;100.00;101564.84;2092711;28;20488;-85
2023/02/07 01:19:19;;;;;;;16.70;3.22;;;;;;;7.70;100.00;101563.09;2095215;28;20048;-85
2023/02/07 01:20:41;;;;;;;8.05;2.22;;;;;;;7.69;100.00;101556.06;2086171;28;20492;-85
2023/02/07 01:22:04;;;;;;;7.97;2.45;;;;;;;7.69;100.00;101551.69;2091809;28;20072;-85
2023/02/07 01:23:28;;;;;;;11.20;3.47;;;;;;;7.69;100.00;101546.44;2089088;28;20045;-84
2023/02/07 01:24:53;;;;;;;12.07;3.60;;;;;;;7.70;100.00;101548.22;2094759;28;20037;-84
2023/02/07 01:26:15;;;;;;;6.88;2.33;;;;;;;7.71;100.00;101547.41;2093397;28;20107;-85
2023/02/07 01:27:38;;;;;;;6.72;2.85;;;;;;;7.71;100.00;101550.03;2078460;28;20054;-86
2023/02/07 01:29:01;;;;;;;6.95;2.28;;;;;;;7.69;100.00;101550.78;2090736;28;20086;-85
2023/02/07 01:30:23;;;;;;;8.00;2.60;;;;;;;7.68;100.00;101554.28;2102454;28;20109;-86
2023/02/07 01:31:46;;;;;;;13.20;2.38;;;;;;;7.66;100.00;101534.94;2097564;28;20133;-86
2023/02/07 01:33:08;;;;;;;5.80;2.28;;;;;;;7.66;100.00;101548.06;2102779;28;20124;-87
2023/02/07 01:34:30;;;;;;;8.85;3.35;;;;;;;7.66;100.00;101541.06;2097448;28;20088;-84
2023/02/07 01:35:51;;;;;;;5.40;2.72;;;;;;;7.69;100.00;101532.41;2098037;28;20077;-87
2023/02/07 01:37:14;;;;;;;12.05;3.00;;;;;;;7.69;100.00;101527.16;2097890;28;20044;-85
2023/02/07 01:38:35;;;;;;;8.88;2.70;;;;;;;7.68;100.00;101531.50;2094642;28;20146;-86
2023/02/07 01:39:57;;;;;;;7.07;2.38;;;;;;;7.66;100.00;101530.56;2093020;28;20048;-87
2023/02/07 01:41:19;;;;;;;8.77;2.22;;;;;;;7.64;100.00;101537.47;2094330;28;20078;-87
2023/02/07 01:42:43;;;;;;;;;;;;;;;7.54;100.00;101525.72;2087298;28;20128;-87
2023/02/07 01:44:07;;;;;;;7.38;2.65;;;;;;;7.53;100.00;101533.53;2097784;28;19926;-87
2023/02/07 01:45:34;;;;;;;6.93;2.22;;;;;;;7.51;100.00;101537.81;2086691;28;20049;-86
2023/02/07 01:46:57;;;;;;;8.88;2.70;;;;;;;7.48;100.00;101529.84;2092025;28;20094;-87
2023/02/07 01:48:29;;;;;;;6.80;2.40;;;;;;;7.45;100.00;101535.84;2094707;28;20051;-85
2023/02/07 01:49:55;;;;;;;9.05;3.13;;;;;;;7.42;100.00;101519.97;2104980;28;20044;-86
2023/02/07 01:51:18;;;;;;;7.60;2.65;;;;;;;7.40;100.00;101518.13;2089264;28;20587;-86
2023/02/07 01:52:40;;;;;;;8.98;3.17;;;;;;;7.38;100.00;101522.41;2099530;28;20036;-86
2023/02/07 01:54:06;;;;;;;6.40;2.38;;;;;;;7.38;100.00;101531.19;2098099;28;20460;-89
2023/02/07 01:55:31;;;;;;;6.28;2.30;;;;;;;7.40;100.00;101528.63;2088906;28;20043;-88
2023/02/07 01:56:57;;;;;;;7.38;2.42;;;;;;;7.43;100.00;101534.00;2095408;28;20063;-88
2023/02/07 01:58:21;;;;;;;9.98;2.63;;;;;;;7.44;100.00;101535.78;2086158;28;20052;-87
2023/02/07 01:59:46;;;;;;;7.25;2.85;;;;;;;7.46;100.00;101523.63;2095627;28;20116;-85
2023/02/07 02:01:12;;;;;;;8.63;2.03;;;;;;;7.49;100.00;101522.00;2090636;28;20048;-86
2023/02/07 02:02:37;;;;;;;6.82;2.63;;;;;;;7.50;100.00;101523.78;2094381;28;20098;-86
2023/02/07 02:04:00;;;;;;;5.13;1.90;;;;;;;7.53;100.00;101508.16;2103320;28;20047;-87
2023/02/07 02:05:22;;;;;;;7.07;2.03;;;;;;;7.55;100.00;101524.88;2095208;28;20044;-85
2023/02/07 02:06:46;;;;;;;9.45;2.45;;;;;;;7.58;100.00;101524.09;2092292;28;20046;-86
2023/02/07 02:08:09;;;;;;;9.63;2.25;;;;;;;7.60;100.00;101522.44;2096171;28;20093;-86
2023/02/07 02:09:30;;;;;;;8.20;2.83;;;;;;;7.63;100.00;101516.41;2089751;28;20045;-86
2023/02/07 02:11:07;;;;;;;7.93;2.75;;;;;;;7.64;100.00;101518.19;2100559;28;20578;-84
2023/02/07 02:12:54;;;;;;;8.75;2.40;;;;;;;7.64;100.00;101516.47;2097811;28;20086;-89
2023/02/07 02:14:50;;;;;;;8.75;2.90;;;;;;;7.62;100.00;101526.00;2097269;28;20143;-88
2023/02/07 02:16:20;;;;;;;8.80;2.25;;;;;;;7.59;100.00;101533.78;2080931;28;20037;-89
2023/02/07 02:17:58;;;;;;;9.45;2.67;;;;;;;7.57;100.00;101523.22;2087530;28;20045;-89
2023/02/07 02:19:59;;;;;;;10.73;2.75;;;;;;;7.54;100.00;101533.63;2088887;28;20488;-88
2023/02/07 02:22:10;;;;;;;6.53;2.53;;;;;;;7.52;100.00;101534.38;2082796;28;20106;-88
2023/02/07 02:23:47;;;;;;;9.25;2.60;;;;;;;7.53;100.00;101536.16;2061340;28;20418;-89
2023/02/07 02:25:37;;;;;;;6.85;2.25;;;;;;;7.54;100.00;101535.34;2104580;28;20083;-89
2023/02/07 02:27:11;;;;;;;7.40;2.60;;;;;;;7.57;100.00;101538.06;2097279;28;20059;-89
2023/02/07 02:29:05;;;;;;;7.20;3.25;;;;;;;7.59;100.00;101536.41;2096459;28;20055;-86
2023/02/07 02:30:58;;;;;;;7.40;2.85;;;;;;;7.59;100.00;101520.66;2097438;28;20488;-89
2023/02/07 02:32:54;;;;;;;11.05;3.22;;;;;;;7.61;100.00;101533.00;2097149;28;20435;-90
2023/02/07 02:34:22;;;;;;;8.43;2.72;;;;;;;7.62;100.00;101536.53;2089141;28;20117;-89
2023/02/07 02:36:01;;;;;;;8.90;3.00;;;;;;;7.63;100.00;101543.56;2095800;28;20157;-90
2023/02/07 02:37:36;;;;;;;6.43;2.20;;;;;;;7.62;100.00;101544.41;2088726;28;20041;-89
2023/02/07 02:39:10;;;;;;;6.85;2.20;;;;;;;7.63;100.00;101521.66;2087722;28;20061;-90
2023/02/07 02:40:39;;;;;;;13.65;2.70;;;;;;;7.63;100.00;101533.06;2094176;28;20781;-89
2023/02/07 02:42:10;;;;;;;6.25;2.40;;;;;;;7.64;100.00;101541.84;2090471;28;20145;-90
2023/02/07 02:43:41;;;;;;;6.18;2.30;;;;;;;7.64;100.00;101533.97;2098447;28;20399;-89
2023/02/07 02:45:09;;;;;;;7.40;2.42;;;;;;;7.65;100.00;101536.66;2093853;28;20052;-89
2023/02/07 02:46:37;;;;;;;9.20;2.58;;;;;;;7.65;100.00;101534.03;2086542;28;20041;-89
2023/02/07 02:48:05;;;;;;;8.38;2.83;;;;;;;7.66;100.00;101532.28;2098638;28;20052;-89
2023/02/07 02:49:29;;;;;;;7.38;2.45;;;;;;;7.65;100.00;101544.53;2103447;28;20040;-89
2023/02/07 02:50:53;;;;;;;7.60;2.20;;;;;;;7.65;100.00;101539.28;2103301;28;20158;-91
2023/02/07 02:52:15;;;;;;;8.25;3.28;;;;;;;7.63;100.00;101540.94;2094857;28;20408;-89
2023/02/07 02:53:37;;;;;;;8.65;2.65;;;;;;;7.64;100.00;101547.09;2108275;28;20059;-91
2023/02/07 02:54:59;;;;;;;10.88;3.15;;;;;;;7.65;100.00;101557.69;2092470;28;20037;-90
2023/02/07 02:56:55;;;;;;;8.15;2.40;;;;;;;7.64;100.00;101544.47;2086640;28;20436;-90
2023/02/07 02:58:25;;;;;;;8.25;3.28;;;;;;;7.62;100.00;101554.91;2097304;28;20149;-89
2023/02/07 03:00:14;;;;;;;12.15;2.63;;;;;;;7.63;100.00;101553.19;2090776;28;20470;-89
2023/02/07 03:01:49;;;;;;;6.97;2.53;;;;;;;7.63;100.00;101553.19;2094870;28;20111;-89
2023/02/07 03:03:34;;;;;;;7.72;2.80;;;;;;;7.60;100.00;101554.88;2102941;28;20093;-89
2023/02/07 03:05:13;;;;;;;7.00;2.50;;;;;;;7.56;100.00;101554.66;2102106;28;20044;-89
2023/02/07 03:06:49;;;;;;;6.40;2.55;;;;;;;7.53;100.00;101555.47;2103994;28;20051;-89
2023/02/07 03:08:23;;;;;;;8.55;2.05;;;;;;;7.54;100.00;101559.88;2083187;28;20047;-89
2023/02/07 03:09:57;;;;;;;9.93;2.70;;;;;;;7.55;100.00;101556.41;2086640;28;20095;-87
2023/02/07 03:11:23;;;;;;;8.38;2.75;;;;;;;7.57;100.00;101551.22;2091522;28;20032;-87
2023/02/07 03:12:54;;;;;;;9.57;2.08;;;;;;;7.56;100.00;101552.03;2089226;28;20045;-84
2023/02/07 03:14:25;;;;;;;7.30;2.13;;;;;;;7.51;100.00;101556.22;2102753;28;20082;-85
2023/02/07 03:16:03;;;;;;;10.32;2.50;;;;;;;7.48;100.00;101559.59;2095752;28;20087;-85
2023/02/07 03:17:31;;;;;;;7.63;2.30;;;;;;;7.47;100.00;101555.22;2103108;28;20094;-81
2023/02/07 03:19:02;;;;;;;5.95;2.17;;;;;;;7.47;100.00;101570.06;2088538;28;20052;-82
2023/02/07 03:20:30;;;;;;;6.95;2.22;;;;;;;7.49;100.00;101571.00;2112078;28;20039;-81
2023/02/07 03:21:57;;;;;;;6.90;2.65;;;;;;;7.51;100.00;101566.72;2101662;28;20459;-83
2023/02/07 03:23:20;;;;;;;8.10;2.28;;;;;;;7.52;100.00;101561.53;2094058;28;20121;-82
2023/02/07 03:24:45;;;;;;;14.35;2.30;;;;;;;7.56;100.00;101565.16;2102839;28;20093;-82
2023/02/07 03:26:09;;;;;;;5.95;2.22;;;;;;;7.56;100.00;101560.81;2090116;28;20045;-82
2023/02/07 03:27:33;;;;;;;11.48;2.63;;;;;;;7.58;100.00;101568.78;2091798;28;20052;-82
2023/02/07 03:28:58;;;;;;;8.13;2.38;;;;;;;7.59;100.00;101560.06;2093721;28;20193;-81
2023/02/07 03:30:22;;;;;;;6.85;2.80;;;;;;;7.59;100.00;101574.09;2094858;28;20048;-82
2023/02/07 03:31:48;;;;;;;9.57;2.75;;;;;;;7.62;100.00;101578.56;2094501;28;20412;-82
2023/02/07 03:33:14;;;;;;;9.85;2.38;;;;;;;7.62;100.00;101570.66;2101978;28;20056;-83
2023/02/07 03:34:42;;;;;;;9.15;3.08;;;;;;;7.64;100.00;101560.22;2094976;28;20867;-81
2023/02/07 03:36:11;;;;;;;11.05;2.63;;;;;;;7.65;100.00;101591.84;2094924;28;20126;-82
2023/02/07 03:37:37;;;;;;;9.75;3.20;;;;;;;7.64;100.00;101582.16;2094763;28;20048;-83
2023/02/07 03:39:00;;;;;;;8.85;2.88;;;;;;;7.53;100.00;101601.84;2094496;28;20045;-85
2023/02/07 03:40:25;;;;;;;8.43;2.60;;;;;;;7.45;100.00;101611.13;2094342;28;20032;-88
2023/02/07 03:41:53;;;;;;;8.55;2.80;;;;;;;7.40;100.00;101599.53;2099438;28;20356;-81
2023/02/07 03:43:18;;;;;;;8.20;3.35;;;;;;;7.35;100.00;101604.59;2101970;28;20056;-82
2023/02/07 03:44:43;;;;;;;9.45;3.20;;;;;;;7.34;100.00;101601.91;2105098;28;20048;-82
2023/02/07 03:46:08;;;;;;;11.50;3.78;;;;;;;7.33;100.00;101605.38;2102936;28;20160;-82
2023/02/07 03:47:29;;;;;;;10.70;3.40;;;;;;;7.31;100.00;101602.66;2101624;28;20066;-82
2023/02/07 03:48:52;;;;;;;13.50;3.55;;;;;;;7.33;100.00;101610.63;2100884;28;20520;-81
2023/02/07 03:50:16;;;;;;;10.25;3.95;;;;;;;7.37;100.00;101609.91;2094198;28;20040;-81
2023/02/07 03:51:38;;;;;;;10.32;2.90;;;;;;;7.36;100.00;101602.84;2094115;28;20053;-83
2023/02/07 03:52:59;;;;;;;6.95;2.83;;;;;;;7.28;100.00;101599.94;2096741;28;20052;-82
2023/02/07 03:54:22;;;;;;;9.00;2.70;;;;;;;7.18;100.00;101602.97;2102510;28;20047;-82
2023/02/07 03:55:44;;;;;;;8.55;2.90;;;;;;;7.13;100.00;101618.56;2101460;28;20052;-82
2023/02/07 03:57:06;;;;;;;7.55;2.45;;;;;;;7.08;100.00;101613.94;2101236;28;20511;-83
2023/02/07 03:58:28;;;;;;;9.20;2.90;;;;;;;7.04;100.00;101607.63;2099279;28;20052;-83
2023/02/07 03:59:50;;;;;;;7.38;3.13;;;;;;;7.05;100.00;101616.41;2086495;28;20055;-85
2023/02/07 04:01:12;;;;;;;7.75;3.63;;;;;;;7.07;100.00;101636.66;2091021;28;20090;-85
2023/02/07 04:02:35;;;;;;;10.70;3.25;;;;;;;7.08;100.00;101621.81;2100779;28;20052;-83
2023/02/07 04:03:56;;;;;;;8.07;3.40;;;;;;;7.10;100.00;101622.75;2096994;28;20060;-83
2023/02/07 04:05:20;;;;;;;8.25;2.83;;;;;;;7.12;100.00;101615.84;2094248;28;20043;-83
2023/02/07 04:06:42;;;;;;;6.88;2.88;;;;;;;7.13;100.00;101621.19;2091666;28;20083;-83
2023/02/07 04:08:05;;;;;;;10.27;2.92;;;;;;;7.16;100.00;101625.63;2087334;28;20079;-82
2023/02/07 04:09:27;;;;;;;10.02;3.13;;;;;;;7.19;100.00;101633.66;2095818;28;20098;-82
2023/02/07 04:10:57;;;;;;;8.35;2.40;;;;;;;7.22;100.00;101619.78;2089265;28;20041;-82
2023/02/07 04:12:20;;;;;;;5.80;2.50;;;;;;;7.21;100.00;101616.25;2088856;28;20142;-82
2023/02/07 04:13:41;;;;;;;7.20;2.33;;;;;;;7.19;100.00;101624.06;2090892;28;20037;-82
2023/02/07 04:15:05;;;;;;;7.60;2.88;;;;;;;7.19;100.00;101624.06;2090551;28;20057;-83
2023/02/07 04:16:27;;;;;;;8.35;3.75;;;;;;;7.24;100.00;101620.72;2096852;28;20094;-82
2023/02/07 04:17:48;;;;;;;9.40;2.97;;;;;;;7.27;100.00;101616.50;2095052;28;20120;-82
2023/02/07 04:19:10;;;;;;;7.10;3.00;;;;;;;7.30;100.00;101621.88;2094628;28;20535;-82
2023/02/07 04:20:34;;;;;;;8.10;3.05;;;;;;;7.34;100.00;101626.44;2098323;28;20099;-82
2023/02/07 04:21:58;;;;;;;6.30;2.72;;;;;;;7.35;100.00;101632.59;2093728;28;20086;-82
2023/02/07 04:23:20;;;;;;;7.82;2.53;;;;;;;7.36;100.00;101613.34;2087481;28;20049;-82
2023/02/07 04:24:42;;;;;;;5.93;2.60;;;;;;;7.36;100.00;101626.50;2096006;28;20126;-82
2023/02/07 04:26:05;;;;;;;7.78;2.38;;;;;;;7.36;100.00;101623.88;2095483;28;20064;-82
2023/02/07 04:27:27;;;;;;;7.60;2.63;;;;;;;7.35;100.00;101628.22;2094090;28;20166;-82
2023/02/07 04:28:49;;;;;;;7.35;2.47;;;;;;;7.36;100.00;101623.88;2094384;28;20097;-81
2023/02/07 04:30:12;;;;;;;7.28;2.42;;;;;;;7.37;100.00;101633.53;2093844;28;20044;-83
2023/02/07 04:31:34;;;;;;;6.57;2.67;;;;;;;7.37;100.00;101636.16;2097005;28;20623;-82
2023/02/07 04:32:56;;;;;;;8.27;2.60;;;;;;;7.39;100.00;101645.91;2095775;28;20136;-82
2023/02/07 04:34:17;;;;;;;5.88;2.10;;;;;;;7.41;100.00;101636.38;2085550;28;20076;-82
2023/02/07 04:35:41;;;;;;;7.00;2.50;;;;;;;7.42;100.00;101626.75;2084793;28;20477;-82
2023/02/07 04:37:03;;;;;;;7.80;2.75;;;;;;;7.44;100.00;101636.50;2083739;28;20041;-82
2023/02/07 04:38:25;;;;;;;8.63;2.72;;;;;;;7.45;100.00;101627.78;2092776;28;20066;-82
2023/02/07 04:39:47;;;;;;;;;;;;;;;7.44;100.00;101649.63;2089565;28;20077;-82
2023/02/07 04:41:10;;;;;;;7.40;2.97;;;;;;;7.45;100.00;101640.94;2093553;28;19955;-82
2023/02/07 04:42:32;;;;;;;9.82;3.05;;;;;;;7.48;100.00;101646.28;2094764;28;20056;-82
2023/02/07 04:43:53;;;;;;;7.75;2.80;;;;;;;7.49;100.00;101642.84;2095791;28;20196;-82
2023/02/07 04:45:16;;;;;;;;;;;;;;;7.47;100.00;101646.25;2083565;28;20051;-82
2023/02/07 04:46:38;;;;;;;6.55;2.22;;;;;;;7.49;100.00;101650.72;2089824;28;20416;-82
2023/02/07 04:47:59;;;;;;;9.40;3.20;;;;;;;7.51;100.00;101654.31;2087174;28;20049;-83
2023/02/07 04:49:22;;;;;;;8.55;2.75;;;;;;;7.54;100.00;101658.81;2087394;28;20041;-81
2023/02/07 04:50:45;;;;;;;7.95;3.38;;;;;;;7.57;100.00;101658.91;2086607;28;20065;-81
2023/02/07 04:52:07;;;;;;;13.10;6.20;;;;;;;7.56;100.00;101668.53;2086902;28;20462;-82
2023/02/07 04:53:29;;;;;;;22.95;10.20;;;;;;;7.56;100.00;101654.50;2087301;28;20544;-82
2023/02/07 04:54:51;;;;;;;29.98;10.23;;;;;;;7.56;100.00;101679.03;2088988;28;20487;-80
2023/02/07 04:56:13;;;;;;;16.95;5.13;;;;;;;7.58;100.00;101669.50;2090997;28;20044;-81
2023/02/07 04:57:36;;;;;;;8.20;3.10;;;;;;;7.60;100.00;101677.47;2090554;28;20050;-81
2023/02/07 04:58:57;;;;;;;10.10;3.28;;;;;;;7.60;100.00;101674.84;2095174;28;20167;-81
2023/02/07 05:00:20;;;;;;;11.93;5.15;;;;;;;7.60;100.00;101672.22;2094750;28;20076;-81
2023/02/07 05:01:42;;;;;;;17.48;5.50;;;;;;;7.61;100.00;101688.00;2103399;28;20499;-83
2023/02/07 05:03:04;;;;;;;81.13;32.03;;;;;;;7.60;100.00;101683.63;2096623;28;20048;-82
2023/02/07 05:04:27;;;;;;;49.38;21.00;;;;;;;7.59;100.00;101692.31;2087206;28;20139;-81
2023/02/07 05:05:53;;;;;;;8.95;3.72;;;;;;;7.60;100.00;101681.00;2087421;28;20045;-81
2023/02/07 05:07:15;;;;;;;10.45;4.63;;;;;;;7.59;100.00;101689.69;2096780;28;20529;-82
2023/02/07 05:08:38;;;;;;;7.88;4.40;;;;;;;7.59;100.00;101688.78;2091108;28;20146;-81
2023/02/07 05:09:59;;;;;;;9.73;4.38;;;;;;;7.59;100.00;101697.59;2086782;28;20068;-82
2023/02/07 05:11:21;;;;;;;9.68;4.32;;;;;;;7.60;100.00;101685.34;2095016;28;20036;-82
2023/02/07 05:12:44;;;;;;;12.18;5.38;;;;;;;7.62;100.00;101688.91;2095107;28;20052;-80
2023/02/07 05:14:05;;;;;;;19.50;10.52;;;;;;;7.66;100.00;101690.84;2094345;28;20091;-81
2023/02/07 05:15:27;;;;;;;31.08;14.68;;;;;;;7.67;100.00;101697.00;2094832;28;20484;-81
2023/02/07 05:16:50;;;;;;;23.80;12.73;;;;;;;7.69;100.00;101690.06;2094423;28;20045;-81
2023/02/07 05:18:12;;;;;;;9.18;3.92;;;;;;;7.69;100.00;101700.56;2103387;28;20113;-81
2023/02/07 05:19:34;;;;;;;13.73;8.18;;;;;;;7.65;100.00;101699.56;2098814;28;20044;-82
2023/02/07 05:20:58;;;;;;;10.63;6.78;;;;;;;7.58;100.00;101698.41;2095136;28;20102;-81
2023/02/07 05:22:21;;;;;;;17.13;9.60;;;;;;;7.54;100.00;101707.00;2086274;28;20083;-82
2023/02/07 05:23:43;;;;;;;16.83;9.02;;;;;;;7.52;100.00;101697.25;2091556;28;20064;-82
2023/02/07 05:25:06;;;;;;;12.48;6.35;;;;;;;7.50;100.00;101706.78;2094431;28;20052;-82
2023/02/07 05:26:28;;;;;;;16.67;9.20;;;;;;;7.47;100.00;101696.16;2095002;28;20060;-82
2023/02/07 05:27:51;;;;;;;12.18;9.23;;;;;;;7.48;100.00;101692.72;2103457;28;20044;-81
2023/02/07 05:29:13;;;;;;;11.38;7.05;;;;;;;7.49;100.00;101698.00;2098003;28;20040;-81
2023/02/07 05:30:34;;;;;;;8.93;5.43;;;;;;;7.50;100.00;101699.81;2096606;28;20517;-81
2023/02/07 05:33:36;;;;;;;12.50;6.32;;;;;;;7.51;100.00;101704.22;2100049;28;20044;-83
2023/02/07 05:34:58;;;;;;;7.65;5.10;;;;;;;7.54;100.00;101706.09;2097283;28;20040;-82
2023/02/07 05:36:21;;;;;;;7.45;3.53;;;;;;;7.55;100.00;101706.16;2092006;28;20523;-83
2023/02/07 05:37:43;;;;;;;9.68;3.58;;;;;;;7.58;100.00;101703.66;2099588;28;20495;-81
2023/02/07 05:39:05;;;;;;;10.88;7.10;;;;;;;7.59;100.00;101705.47;2093149;28;20299;-82
2023/02/07 05:40:26;;;;;;;11.70;5.60;;;;;;;7.64;100.00;101718.78;2103254;28;20051;-84
2023/02/07 05:41:48;;;;;;;9.65;6.68;;;;;;;7.65;100.00;101714.44;2095331;28;20057;-82
2023/02/07 05:43:11;;;;;;;9.88;3.50;;;;;;;7.68;100.00;101715.44;2094143;28;20055;-81
2023/02/07 05:44:33;;;;;;;11.45;3.40;;;;;;;7.67;100.00;101716.31;2089241;28;20059;-82
2023/02/07 05:45:55;;;;;;;7.65;3.20;;;;;;;7.68;100.00;101720.69;2095840;28;20089;-82
2023/02/07 05:47:16;;;;;;;13.82;4.93;;;;;;;7.71;100.00;101720.84;2103134;28;20093;-80
2023/02/07 05:48:39;;;;;;;11.05;6.03;;;;;;;7.72;100.00;101721.75;2103594;28;20084;-82
2023/02/07 05:50:00;;;;;;;11.43;5.13;;;;;;;7.75;100.00;101717.50;2103283;28;20617;-81
2023/02/07 05:51:24;;;;;;;12.20;4.22;;;;;;;7.78;100.00;101729.88;2105695;28;20051;-81
2023/02/07 05:52:45;;;;;;;10.73;5.18;;;;;;;7.79;100.00;101718.53;2095309;28;20233;-81
2023/02/07 05:54:08;;;;;;;13.40;6.25;;;;;;;7.82;100.00;101740.59;2100670;28;20051;-81
2023/02/07 05:55:30;;;;;;;8.85;5.10;;;;;;;7.83;100.00;101729.25;2103105;28;20032;-81
2023/02/07 05:56:51;;;;;;;14.15;6.13;;;;;;;7.86;100.00;101734.63;2095131;28;20515;-81
2023/02/07 05:58:13;;;;;;;16.85;10.30;;;;;;;7.89;100.00;101736.47;2088135;28;20041;-80
2023/02/07 05:59:35;;;;;;;14.85;8.57;;;;;;;7.92;100.00;101740.16;2092270;28;20076;-82
2023/02/07 06:00:57;;;;;;;10.48;5.05;;;;;;;7.93;100.00;101731.44;2101785;28;20097;-81
2023/02/07 06:02:18;;;;;;;14.70;4.85;;;;;;;7.94;100.00;101732.34;2100066;28;20405;-81
2023/02/07 06:03:40;;;;;;;14.38;10.73;;;;;;;7.94;100.00;101730.56;2093547;28;20049;-81
2023/02/07 06:05:03;;;;;;;17.60;12.40;;;;;;;7.93;100.00;101726.19;2091499;28;20528;-81
2023/02/07 06:06:26;;;;;;;11.82;6.47;;;;;;;7.92;100.00;101723.47;2094496;28;20040;-81
2023/02/07 06:07:50;;;;;;;10.77;6.25;;;;;;;7.89;100.00;101725.97;2092069;28;20048;-81
2023/02/07 06:09:12;;;;;;;7.93;4.28;;;;;;;7.89;100.00;101728.59;2095082;28;20493;-82
2023/02/07 06:10:34;;;;;;;15.55;6.40;;;;;;;7.88;100.00;101734.69;2086488;28;20053;-81
2023/02/07 06:11:55;;;;;;;10.73;4.90;;;;;;;7.89;100.00;101729.50;2094357;28;20052;-83
2023/02/07 06:13:18;;;;;;;9.48;3.47;;;;;;;7.91;100.00;101735.72;2091371;28;20049;-80
2023/02/07 06:14:40;;;;;;;11.77;6.20;;;;;;;7.95;100.00;101731.47;2088922;28;20045;-81
2023/02/07 06:16:02;;;;;;;10.38;6.07;;;;;;;7.99;100.00;101738.69;2086383;28;20144;-80
2023/02/07 06:17:24;;;;;;;8.90;3.42;;;;;;;8.02;100.00;101742.31;2094716;28;20466;-81
2023/02/07 06:18:47;;;;;;;9.55;4.60;;;;;;;8.05;100.00;101752.06;2102678;28;20585;-81
2023/02/07 06:20:11;;;;;;;10.20;5.63;;;;;;;8.09;100.00;101747.81;2094882;28;20045;-82
2023/02/07 06:21:34;;;;;;;7.85;3.35;;;;;;;8.10;100.00;101752.25;2089227;28;20095;-81
2023/02/07 06:22:56;;;;;;;10.57;6.63;;;;;;;8.10;100.00;101757.50;2094590;28;20044;-81
2023/02/07 06:24:17;;;;;;;14.32;5.88;;;;;;;8.09;100.00;101759.25;2089038;28;20045;-82
2023/02/07 06:25:39;;;;;;;12.95;5.13;;;;;;;8.08;100.00;101770.59;2100465;28;20743;-81
2023/02/07 06:27:02;;;;;;;8.95;3.92;;;;;;;8.07;100.00;101762.66;2096350;28;20594;-82
2023/02/07 06:28:24;;;;;;;9.48;3.38;;;;;;;8.06;100.00;101760.88;2094608;28;20505;-81
2023/02/07 06:29:46;;;;;;;9.73;3.50;;;;;;;8.07;100.00;101758.31;2094168;28;20105;-82
2023/02/07 06:31:09;;;;;;;13.40;4.70;;;;;;;8.09;100.00;101763.59;2097384;28;20037;-82
2023/02/07 06:32:31;;;;;;;13.65;5.70;;;;;;;8.09;100.00;101763.59;2091892;28;20500;-83
2023/02/07 06:33:53;;;;;;;15.65;8.30;;;;;;;8.08;100.00;101775.84;2099912;28;20048;-81
2023/02/07 06:35:16;;;;;;;7.90;3.10;;;;;;;8.08;100.00;101783.75;2103462;28;20048;-82